Kersey, Indiana
Current Conditions -  °F | °C
As of 3:35 AM on Monday 24 Nov 2014 (Local Time) from KRZL Reporting Station
Haze Haze  
Wind Chill: 50°   Ceiling: 200
Heat Index: 50°   Visibility: 1.2mi
Dew Point: 50°   Wind: 10mph
Humidity: 100%   Direction: 210°SSW
Pressure: 29.14"   Gusts: NA
Location:  41.1657°N, 87.2663°W
Report Text: KRZL 240935Z AUTO 21009KT 1 1/4SM BR OVC002 10/10 A2914 RMK AO2 P0002
Loading
Personal Weather Stations






























Interactive Weather Map New forecast layout! Learn more

10-Day Weather Forecast

Advertisements
Track Severe Weather on mobile